Time;durP1;ratioP1;P1;durP2;ratioP2;P2;SDS_P1;SDS_P2;PMS_P1;PMS_P2;Temp;Humidity;BMP_temperature;BMP_pressure;BME280_temperature;BME280_humidity;BME280_pressure;Samples;Min_cycle;Max_cycle;Signal;HPM_P1;HPM_P2
2023/12/06 07:01:24;;;;;;;1.20;1.20;;;6.60;99.90;9.30;101128.00;;;;6223457;22;1482834;-69
2023/12/06 07:03:55;;;;;;;0.90;0.90;;;6.60;99.90;10.10;101140.00;;;;6276743;22;20250;-69
2023/12/06 07:06:30;;;;;;;1.00;1.00;;;6.70;99.90;10.10;101139.00;;;;6251629;22;20156;-69
2023/12/06 07:09:05;;;;;;;0.73;0.73;;;6.70;99.90;9.70;101152.00;;;;6276522;22;20481;-69
2023/12/06 07:12:03;;;;;;;1.00;1.00;;;6.80;99.90;9.80;101144.00;;;;6278355;22;20588;-69
2023/12/06 07:14:35;;;;;;;1.30;1.30;;;6.60;99.90;10.30;101152.00;;;;6251848;22;20167;-68
2023/12/06 07:17:21;;;;;;;0.90;0.90;;;6.80;99.90;10.30;101157.00;;;;6277299;22;20144;-68
2023/12/06 07:19:54;;;;;;;5.17;2.67;;;6.90;99.90;9.90;101164.00;;;;6230011;22;20612;-68
2023/12/06 07:22:32;;;;;;;5.40;3.30;;;6.70;99.90;9.80;101161.00;;;;6276815;22;20164;-68
2023/12/06 07:25:29;;;;;;;1.50;1.50;;;6.70;99.90;8.80;101167.00;;;;6278133;22;20580;-68
2023/12/06 07:28:07;;;;;;;2.17;2.00;;;6.50;99.90;9.30;101162.00;;;;6267126;22;20166;-68
2023/12/06 07:30:50;;;;;;;0.60;0.60;;;6.30;99.90;9.20;101165.00;;;;6277997;22;20154;-68
2023/12/06 07:33:31;;;;;;;0.70;0.70;;;6.20;99.90;9.70;101179.00;;;;6275563;22;20225;-68
2023/12/06 07:36:07;;;;;;;1.17;1.17;;;6.40;99.90;9.20;101159.00;;;;6250779;22;20217;-68
2023/12/06 07:38:36;;;;;;;1.43;1.37;;;6.40;99.90;8.50;101174.00;;;;6276528;22;20163;-68
2023/12/06 07:41:04;;;;;;;1.17;0.80;;;6.00;99.90;8.60;101179.00;;;;6276774;22;20168;-68
2023/12/06 07:43:30;;;;;;;4.23;3.90;;;6.00;99.90;8.70;101173.00;;;;6276218;22;20497;-68
2023/12/06 07:45:56;;;;;;;1.23;1.23;;;5.90;99.90;8.80;101139.00;;;;6251032;22;20258;-68
2023/12/06 07:48:29;;;;;;;0.67;0.67;;;5.90;99.90;8.90;101183.00;;;;6251270;22;20174;-67
2023/12/06 07:51:09;;;;;;;0.50;0.50;;;6.00;99.90;9.30;101197.00;;;;6275464;22;20171;-68
2023/12/06 07:53:48;;;;;;;0.70;0.70;;;6.20;99.90;9.60;101201.00;;;;6276888;22;20138;-68
2023/12/06 07:56:17;;;;;;;1.63;1.53;;;6.30;99.90;8.90;101188.00;;;;6276064;22;20139;-68
2023/12/06 07:58:51;;;;;;;2.50;2.33;;;6.10;99.90;7.20;101191.00;;;;6251123;22;20160;-68
2023/12/06 08:01:31;;;;;;;0.93;0.93;;;5.70;99.90;8.10;101152.00;;;;6275875;22;20246;-68
2023/12/06 08:04:03;;;;;;;0.67;0.67;;;5.60;99.90;8.90;101187.00;;;;6276531;22;20185;-69
2023/12/06 08:06:36;;;;;;;0.50;0.50;;;5.90;99.90;8.10;101180.00;;;;6276081;22;20167;-69
2023/12/06 08:09:17;;;;;;;0.50;0.50;;;5.80;99.90;7.70;101182.00;;;;6276120;22;20202;-69
2023/12/06 08:11:52;;;;;;;0.67;0.67;;;5.70;99.90;8.30;101147.00;;;;6252202;22;20215;-69
2023/12/06 08:14:18;;;;;;;1.20;1.20;;;5.70;99.90;7.90;101190.00;;;;6252199;22;20190;-69
2023/12/06 08:16:58;;;;;;;3.00;1.83;;;5.70;99.90;8.00;101182.00;;;;6276199;22;20208;-69
2023/12/06 08:19:23;;;;;;;1.10;0.93;;;5.70;99.90;8.50;101191.00;;;;6277517;22;20140;-69
2023/12/06 08:21:49;;;;;;;0.73;0.73;;;6.00;99.90;7.80;101182.00;;;;6277106;22;20199;-69
2023/12/06 08:24:24;;;;;;;2.10;1.83;;;5.80;99.90;8.40;101187.00;;;;6277856;22;20141;-68
2023/12/06 08:26:52;;;;;;;2.57;2.00;;;5.90;99.90;7.60;101180.00;;;;6277475;22;20141;-69
2023/12/06 08:29:18;;;;;;;1.70;1.60;;;5.70;99.90;8.40;101190.00;;;;6275758;22;20211;-69
2023/12/06 08:31:47;;;;;;;2.60;2.40;;;5.90;99.90;8.20;101188.00;;;;6250605;22;20244;-69
2023/12/06 08:34:14;;;;;;;2.70;2.53;;;5.90;99.90;8.50;101199.00;;;;6275802;22;20181;-69
2023/12/06 08:36:45;;;;;;;2.93;2.07;;;6.00;99.90;8.50;101211.00;;;;6250375;22;20160;-69
2023/12/06 08:39:21;;;;;;;1.13;1.13;;;6.10;99.90;8.50;101215.00;;;;6276457;22;20561;-69
2023/12/06 08:41:53;;;;;;;3.50;3.20;;;6.20;99.90;8.40;101217.00;;;;6275618;22;20545;-69
2023/12/06 08:44:24;;;;;;;0.40;0.40;;;6.10;99.90;7.90;101221.00;;;;6276177;22;20141;-69
2023/12/06 08:46:53;;;;;;;1.43;1.43;;;6.00;99.90;8.30;101225.00;;;;6250519;22;20187;-69
2023/12/06 08:49:22;;;;;;;1.53;1.13;;;6.00;99.90;8.70;101224.00;;;;6275110;22;20159;-69
2023/12/06 08:51:48;;;;;;;2.10;2.00;;;6.20;99.90;8.70;101227.00;;;;6277492;22;20134;-68
2023/12/06 08:54:17;;;;;;;1.57;1.57;;;6.30;99.90;8.30;101229.00;;;;6275581;22;20148;-69
2023/12/06 08:56:46;;;;;;;3.63;3.33;;;6.20;99.90;8.10;101212.00;;;;6277768;22;20148;-69
2023/12/06 08:59:15;;;;;;;0.80;0.80;;;6.10;99.90;8.10;101217.00;;;;6277177;22;20140;-69
2023/12/06 09:01:50;;;;;;;0.60;0.60;;;6.00;99.90;8.60;101221.00;;;;6275465;22;20241;-69
2023/12/06 09:04:15;;;;;;;3.13;2.80;;;6.20;99.90;8.30;101217.00;;;;6275133;22;20194;-69
2023/12/06 09:06:47;;;;;;;6.03;3.83;;;6.10;99.90;8.50;101194.00;;;;6250328;22;20163;-68
2023/12/06 09:09:18;;;;;;;3.07;2.87;;;6.20;99.90;8.50;101208.00;;;;6277441;22;20181;-68
2023/12/06 09:11:45;;;;;;;1.67;1.43;;;6.20;99.90;8.20;101225.00;;;;6275888;22;20137;-68
2023/12/06 09:14:12;;;;;;;4.13;3.77;;;6.10;99.90;8.40;101216.00;;;;6277547;22;20147;-66
2023/12/06 09:16:41;;;;;;;1.27;1.07;;;6.10;99.90;7.90;101202.00;;;;6277236;22;20432;-68
2023/12/06 09:19:10;;;;;;;2.27;2.10;;;6.10;99.90;7.40;101189.00;;;;6249981;22;20170;-68
2023/12/06 09:21:43;;;;;;;0.30;0.30;;;5.80;99.90;8.00;101216.00;;;;6275057;22;20547;-70
2023/12/06 09:24:10;;;;;;;2.30;2.10;;;6.00;99.90;9.10;101225.00;;;;6250486;22;20198;-63
2023/12/06 09:26:37;;;;;;;0.20;0.20;;;6.40;99.90;8.50;101207.00;;;;6275738;22;20174;-62
2023/12/06 09:29:06;;;;;;;2.60;2.23;;;6.40;99.90;9.40;101235.00;;;;6276494;22;20153;-62
2023/12/06 09:31:57;;;;;;;0.83;0.83;;;6.70;99.90;10.00;101243.00;;;;6273652;22;20187;-70
2023/12/06 09:34:26;;;;;;;0.20;0.20;;;7.20;99.90;10.70;101246.00;;;;6262460;22;20193;-70
2023/12/06 09:36:55;;;;;;;0.30;0.30;;;7.50;99.90;11.40;101256.00;;;;6276925;22;20228;-70
2023/12/06 09:39:51;;;;;;;0.20;0.20;;;8.00;99.90;11.90;101283.00;;;;6274714;22;20141;-70
2023/12/06 09:42:27;;;;;;;0.30;0.30;;;8.40;99.90;12.20;101284.00;;;;6265303;22;20250;-70
2023/12/06 09:45:14;;;;;;;0.47;0.47;;;8.60;99.90;12.30;101312.00;;;;6275588;22;20142;-70
2023/12/06 09:48:02;;;;;;;0.20;0.20;;;8.70;99.90;12.40;101309.00;;;;6251955;22;20647;-70
2023/12/06 09:50:28;;;;;;;0.30;0.30;;;8.80;99.90;12.60;101316.00;;;;6250001;22;20229;-70
2023/12/06 09:53:15;;;;;;;2.00;1.90;;;8.90;99.90;12.00;101309.00;;;;6275168;22;20220;-68
2023/12/06 09:55:42;;;;;;;2.03;1.70;;;8.80;99.90;11.70;101316.00;;;;6275787;22;20187;-70
2023/12/06 09:58:08;;;;;;;0.30;0.30;;;8.90;99.90;12.20;101324.00;;;;6249418;22;20157;-71
2023/12/06 10:00:36;;;;;;;0.20;0.20;;;8.80;99.90;12.40;101332.00;;;;6249384;22;20231;-72
2023/12/06 10:03:27;;;;;;;0.30;0.30;;;8.90;99.90;12.10;101329.00;;;;6249374;22;20173;-71
2023/12/06 10:05:58;;;;;;;0.30;0.30;;;8.70;99.90;12.70;101324.00;;;;6224712;22;20158;-71
2023/12/06 10:08:27;;;;;;;0.20;0.20;;;8.90;99.90;12.70;101329.00;;;;6224306;22;20162;-72
2023/12/06 10:11:25;;;;;;;1.23;1.23;;;9.10;99.90;12.50;101331.00;;;;6249953;22;20166;-70
2023/12/06 10:13:51;;;;;;;5.33;1.70;;;9.10;99.90;11.50;101329.00;;;;6248897;22;20165;-71
2023/12/06 10:16:56;;;;;;;0.20;0.20;;;8.80;99.90;11.00;101329.00;;;;6224228;22;20184;-71
2023/12/06 10:19:42;;;;;;;0.47;0.40;;;8.40;99.90;10.60;101324.00;;;;6242990;22;20245;-71
2023/12/06 10:33:26;;;;;;;0.93;0.90;;;6.50;99.90;8.60;101287.00;;;;5125049;27;1415558;-72
2023/12/06 10:36:09;;;;;;;0.20;0.20;;;6.70;99.90;9.70;101255.00;;;;5132967;27;20193;-72
2023/12/06 10:38:42;;;;;;;0.80;0.80;;;7.20;99.90;10.60;101302.00;;;;5116419;27;20182;-72
2023/12/06 10:41:11;;;;;;;1.37;1.37;;;7.80;99.90;9.90;101299.00;;;;5109452;28;20185;-72
2023/12/06 10:43:54;;;;;;;4.13;2.10;;;7.90;99.90;9.70;101285.00;;;;5132697;27;20586;-72
2023/12/06 10:46:25;;;;;;;1.67;1.57;;;7.60;99.90;9.60;101287.00;;;;5112268;28;20663;-72
2023/12/06 10:48:53;;;;;;;1.47;1.40;;;7.50;99.90;9.20;101275.00;;;;5129254;27;20179;-72
2023/12/06 10:51:23;;;;;;;0.97;0.97;;;7.30;99.90;8.90;101285.00;;;;5113924;27;20566;-71
2023/12/06 10:53:54;;;;;;;0.40;0.40;;;7.10;99.90;10.90;101281.00;;;;5115012;27;20339;-72
2023/12/06 10:56:28;;;;;;;6.00;2.83;;;7.60;99.90;10.10;101321.00;;;;5151261;27;20207;-71
2023/12/06 10:58:56;;;;;;;0.80;0.80;;;7.70;99.90;11.10;101309.00;;;;5133459;27;20193;-72
2023/12/06 11:01:24;;;;;;;0.20;0.20;;;8.00;99.90;10.60;101321.00;;;;5133377;27;20188;-72
2023/12/06 11:03:59;;;;;;;0.70;0.67;;;8.10;99.90;10.30;101317.00;;;;5133311;27;20194;-71
2023/12/06 11:06:52;;;;;;;1.43;1.33;;;8.00;99.90;10.20;101302.00;;;;5133441;27;20220;-72
2023/12/06 11:10:09;;;;;;;0.47;0.47;;;7.90;99.90;9.10;101288.00;;;;5133204;27;20191;-72
2023/12/06 11:13:02;;;;;;;1.30;1.20;;;7.60;99.90;10.50;101304.00;;;;5132317;27;20195;-72
2023/12/06 11:15:47;;;;;;;0.50;0.50;;;7.70;99.90;11.10;101319.00;;;;5151264;27;20187;-72
2023/12/06 11:18:21;;;;;;;0.67;0.63;;;8.10;99.90;10.90;101315.00;;;;5103240;27;20183;-72
2023/12/06 11:20:55;;;;;;;0.10;0.10;;;8.10;99.90;11.80;101337.00;;;;5132032;27;20195;-72
2023/12/06 11:23:27;;;;;;;0.20;0.20;;;8.40;99.90;12.40;101352.00;;;;5115888;27;20648;-72
2023/12/06 11:26:00;;;;;;;1.07;1.07;;;8.80;99.90;12.90;101356.00;;;;5112184;28;20634;-72
2023/12/06 11:28:39;;;;;;;0.20;0.20;;;9.20;99.90;12.60;101326.00;;;;5126870;27;20190;-72
2023/12/06 11:31:16;;;;;;;0.43;0.30;;;9.30;99.90;12.40;101338.00;;;;5115411;27;20186;-72
2023/12/06 11:34:11;;;;;;;1.13;1.03;;;9.20;99.90;10.90;101329.00;;;;5132742;27;20246;-72
2023/12/06 11:36:40;;;;;;;0.93;0.93;;;8.60;99.90;9.80;101312.00;;;;5122363;27;20323;-72
2023/12/06 11:39:18;;;;;;;3.03;2.20;;;7.90;99.90;10.10;101314.00;;;;5132732;27;20176;-72
2023/12/06 11:41:55;;;;;;;0.77;0.77;;;7.60;99.90;10.40;101326.00;;;;5115476;27;20607;-72
2023/12/06 11:44:28;;;;;;;4.10;3.90;;;7.70;99.90;11.10;101298.00;;;;5121043;27;20183;-72
2023/12/06 11:47:16;;;;;;;0.30;0.30;;;7.90;99.90;11.60;101318.00;;;;5105903;27;20524;-72
2023/12/06 11:50:08;;;;;;;0.20;0.20;;;8.30;99.90;10.60;101310.00;;;;5098014;28;20195;-70
2023/12/06 11:53:11;;;;;;;0.67;0.67;;;8.00;99.90;10.10;101304.00;;;;5090652;27;20693;-70
2023/12/06 11:55:39;;;;;;;1.30;1.30;;;7.70;99.90;10.00;101299.00;;;;5101561;27;20175;-70
2023/12/06 11:58:13;;;;;;;0.30;0.30;;;7.50;99.90;10.30;101303.00;;;;5118305;27;20561;-70
2023/12/06 12:00:47;;;;;;;0.20;0.20;;;7.50;99.90;11.20;101306.00;;;;5100915;27;20335;-70
2023/12/06 12:03:24;;;;;;;1.53;1.43;;;7.90;99.90;10.50;101313.00;;;;5117636;27;20190;-70
2023/12/06 12:06:18;;;;;;;1.37;1.27;;;7.80;99.90;10.50;101266.00;;;;5117628;27;20187;-70
2023/12/06 12:08:55;;;;;;;2.93;1.60;;;7.80;99.90;10.50;101306.00;;;;5053112;28;20203;-70
2023/12/06 12:11:23;;;;;;;2.97;1.63;;;7.80;99.90;10.40;101316.00;;;;5035113;28;20302;-70
2023/12/06 12:14:10;;;;;;;2.57;1.63;;;7.90;99.90;10.40;101308.00;;;;5082670;27;20203;-70
2023/12/06 12:16:56;;;;;;;2.57;1.97;;;7.80;99.90;10.80;101312.00;;;;5116027;27;20202;-71
2023/12/06 12:19:22;;;;;;;2.03;2.00;;;8.10;99.90;10.20;101322.00;;;;5106437;27;20192;-71
2023/12/06 12:22:26;;;;;;;1.23;0.87;;;7.80;99.90;11.50;101322.00;;;;5117939;27;20717;-70
2023/12/06 12:25:03;;;;;;;1.23;1.23;;;8.10;99.90;11.10;101328.00;;;;5117378;27;20279;-70
2023/12/06 12:27:55;;;;;;;0.20;0.20;;;8.20;99.90;11.50;101340.00;;;;5135821;27;20206;-70
2023/12/06 12:30:46;;;;;;;1.57;1.50;;;8.40;99.90;11.70;101344.00;;;;5036310;28;20197;-70
2023/12/06 12:33:37;;;;;;;0.20;0.20;;;8.50;99.90;12.60;101338.00;;;;5110810;28;20239;-70
2023/12/06 12:36:34;;;;;;;1.57;1.47;;;8.90;99.90;11.70;101346.00;;;;5095792;27;20195;-70
2023/12/06 12:39:23;;;;;;;0.57;0.57;;;8.70;99.90;11.60;101352.00;;;;5092383;27;20621;-73
2023/12/06 12:42:30;;;;;;;1.57;1.50;;;8.90;99.90;10.90;101333.00;;;;5117451;27;20219;-70
2023/12/06 12:45:20;;;;;;;0.20;0.20;;;8.40;99.90;12.20;101357.00;;;;5108519;27;20197;-70
2023/12/06 12:48:24;;;;;;;0.20;0.20;;;8.70;99.90;12.40;101367.00;;;;5088214;27;20190;-70
2023/12/06 12:50:50;;;;;;;0.20;0.20;;;9.20;99.90;13.10;101357.00;;;;5116507;27;20177;-71
2023/12/06 12:54:07;;;;;;;0.40;0.40;;;9.40;99.90;13.10;101360.00;;;;5100071;27;20193;-70
2023/12/06 12:56:38;;;;;;;0.20;0.20;;;9.60;99.90;13.10;101335.00;;;;5129534;27;20204;-70
2023/12/06 12:59:10;;;;;;;0.63;0.63;;;9.70;99.90;12.80;101365.00;;;;5099392;27;20202;-68
2023/12/06 13:01:37;;;;;;;0.30;0.30;;;9.70;99.90;11.40;101345.00;;;;5116881;27;20640;-71
2023/12/06 13:04:10;;;;;;;0.83;0.83;;;9.00;99.90;10.00;101320.00;;;;5100328;27;20552;-73
2023/12/06 13:06:46;;;;;;;0.20;0.20;;;8.30;99.90;9.80;101299.00;;;;5113597;28;20218;-71
2023/12/06 13:09:20;;;;;;;0.70;0.70;;;7.80;99.90;10.20;101320.00;;;;5111636;27;20637;-71
2023/12/06 13:11:57;;;;;;;12.63;1.10;;;7.70;99.90;9.30;101279.00;;;;5121655;27;20199;-71
2023/12/06 13:14:26;;;;;;;1.83;1.73;;;7.40;99.90;10.30;101300.00;;;;5100268;27;20271;-71
2023/12/06 13:16:52;;;;;;;0.20;0.20;;;7.70;99.90;11.10;101310.00;;;;5117004;27;20195;-71
2023/12/06 13:19:18;;;;;;;1.40;1.17;;;7.90;99.90;10.00;101317.00;;;;5116640;27;20183;-71
2023/12/06 13:21:55;;;;;;;0.20;0.20;;;7.80;99.90;9.90;101318.00;;;;5117282;27;20548;-71
2023/12/06 13:24:26;;;;;;;0.40;0.40;;;7.60;99.90;10.80;101317.00;;;;5116884;27;20713;-71
2023/12/06 13:26:52;;;;;;;1.13;1.07;;;7.70;99.90;10.30;101320.00;;;;5127560;27;20171;-71
2023/12/06 13:29:18;;;;;;;0.60;0.60;;;7.80;99.90;9.00;101303.00;;;;5113627;27;20663;-71
2023/12/06 13:31:52;;;;;;;0.30;0.30;;;7.30;99.90;10.50;101312.00;;;;5116201;27;20211;-71
2023/12/06 13:34:18;;;;;;;0.20;0.20;;;7.60;99.90;10.10;101318.00;;;;5108161;28;20249;-71
2023/12/06 13:36:45;;;;;;;1.07;0.93;;;7.50;99.90;10.80;101327.00;;;;5101292;27;20267;-71
2023/12/06 13:39:11;;;;;;;0.47;0.47;;;7.80;99.90;9.40;101293.00;;;;5096082;28;20537;-71
2023/12/06 13:41:37;;;;;;;0.20;0.20;;;7.60;99.90;9.80;101321.00;;;;5092640;27;20630;-71
2023/12/06 13:44:08;;;;;;;0.73;0.73;;;7.50;99.90;10.20;101329.00;;;;5098961;28;20192;-71
2023/12/06 13:46:40;;;;;;;0.40;0.40;;;7.60;99.90;10.00;101346.00;;;;5109689;28;20187;-71
2023/12/06 13:49:07;;;;;;;1.13;1.13;;;7.60;99.90;10.50;101349.00;;;;5123573;27;20625;-71
2023/12/06 13:51:37;;;;;;;0.40;0.40;;;7.70;99.90;10.10;101356.00;;;;5114033;27;20294;-71
2023/12/06 13:54:03;;;;;;;0.20;0.20;;;7.60;99.90;10.70;101345.00;;;;5104105;28;20195;-71
2023/12/06 13:56:29;;;;;;;0.53;0.53;;;7.70;99.90;11.00;101355.00;;;;5099310;27;20210;-71
2023/12/06 13:59:00;;;;;;;0.20;0.20;;;7.90;99.90;10.00;101349.00;;;;5113649;27;20298;-71
2023/12/06 14:01:33;;;;;;;0.40;0.40;;;7.70;99.90;10.20;101343.00;;;;5095508;28;20324;-71
2023/12/06 14:04:04;;;;;;;0.27;0.27;;;7.60;99.90;9.50;101346.00;;;;5090846;27;20604;-71
2023/12/06 14:06:38;;;;;;;1.13;0.80;;;7.40;99.90;10.40;101331.00;;;;5098943;27;20195;-73
2023/12/06 14:09:08;;;;;;;0.20;0.20;;;7.50;99.90;9.60;101340.00;;;;5115859;27;20184;-71
2023/12/06 14:11:40;;;;;;;0.20;0.20;;;7.30;99.90;9.70;101355.00;;;;5099093;27;20281;-71
2023/12/06 14:14:06;;;;;;;0.67;0.67;;;7.40;99.90;9.90;101335.00;;;;5099214;27;20602;-71
2023/12/06 14:16:32;;;;;;;0.20;0.20;;;7.40;99.90;9.70;101339.00;;;;5097624;27;20219;-72
2023/12/06 14:19:00;;;;;;;0.70;0.70;;;7.30;99.90;10.10;101350.00;;;;5116036;27;20183;-71
2023/12/06 14:21:29;;;;;;;0.20;0.20;;;7.40;99.90;10.70;101365.00;;;;5116303;27;20583;-71
2023/12/06 14:23:56;;;;;;;1.03;1.03;;;7.70;99.90;11.00;101359.00;;;;5098386;27;20652;-71
2023/12/06 14:26:35;;;;;;;0.20;0.20;;;7.90;99.90;10.60;101347.00;;;;5098615;28;20192;-71
2023/12/06 14:29:03;;;;;;;0.27;0.27;;;7.80;99.90;10.50;101356.00;;;;5134076;27;20187;-71
2023/12/06 14:31:29;;;;;;;0.30;0.30;;;7.70;99.90;10.10;101356.00;;;;5115584;28;20211;-72
2023/12/06 14:33:58;;;;;;;0.93;0.93;;;7.70;99.90;9.40;101344.00;;;;5098397;28;20180;-72
2023/12/06 14:36:36;;;;;;;0.47;0.47;;;7.50;99.90;9.60;101343.00;;;;5115204;28;20175;-71
2023/12/06 14:39:14;;;;;;;1.53;1.53;;;7.40;99.90;9.70;101343.00;;;;5115708;28;20179;-71
2023/12/06 14:41:54;;;;;;;2.40;2.07;;;7.40;99.90;9.80;101342.00;;;;5105805;28;20186;-71
2023/12/06 14:44:48;;;;;;;1.23;1.13;;;7.40;99.90;9.10;101347.00;;;;5111578;28;20184;-71
2023/12/06 14:47:17;;;;;;;2.10;0.60;;;7.10;99.90;9.80;101362.00;;;;5102144;28;20227;-71
2023/12/06 14:49:49;;;;;;;1.30;0.97;;;7.20;99.90;10.90;101375.00;;;;5093657;28;20187;-71
2023/12/06 14:52:15;;;;;;;1.90;1.80;;;7.60;99.90;10.40;101386.00;;;;5098270;28;20305;-71
2023/12/06 14:55:05;;;;;;;0.67;0.60;;;7.70;99.90;10.10;101398.00;;;;5115476;28;20187;-71
2023/12/06 14:57:41;;;;;;;0.40;0.40;;;7.60;99.90;9.80;101383.00;;;;5110524;28;20227;-71
2023/12/06 15:00:24;;;;;;;0.20;0.20;;;7.30;99.90;9.70;101393.00;;;;5115178;28;20210;-71
2023/12/06 15:03:05;;;;;;;2.90;0.90;;;7.30;99.90;10.30;101399.00;;;;5106659;28;20186;-71
2023/12/06 15:05:54;;;;;;;0.70;0.60;;;7.40;99.90;9.80;101377.00;;;;5115335;28;20182;-71
2023/12/06 15:08:25;;;;;;;0.40;0.40;;;7.40;99.90;9.90;101407.00;;;;5086612;28;20209;-71
2023/12/06 15:11:02;;;;;;;2.63;1.13;;;7.20;99.90;10.10;101405.00;;;;5107072;28;20762;-71
2023/12/06 15:13:34;;;;;;;0.20;0.20;;;7.40;99.90;9.60;101401.00;;;;5111918;28;20260;-71
2023/12/06 15:16:17;;;;;;;1.00;0.53;;;7.30;99.90;9.90;101414.00;;;;5096394;28;20197;-71
2023/12/06 15:18:46;;;;;;;0.20;0.20;;;7.30;99.90;10.80;101385.00;;;;5098744;27;20197;-71
2023/12/06 15:21:25;;;;;;;0.20;0.20;;;7.60;99.90;11.30;101449.00;;;;5108381;27;20178;-72
2023/12/06 15:23:53;;;;;;;0.20;0.20;;;8.00;99.90;11.70;101441.00;;;;5115413;28;20180;-71
2023/12/06 15:26:23;;;;;;;0.20;0.20;;;8.10;99.90;11.90;101463.00;;;;5094377;27;20225;-71
2023/12/06 15:28:58;;;;;;;0.20;0.20;;;8.30;99.90;12.20;101448.00;;;;5095520;27;20259;-71
2023/12/06 15:31:29;;;;;;;0.20;0.20;;;8.60;99.90;12.20;101459.00;;;;5110553;27;20765;-72
2023/12/06 15:34:15;;;;;;;0.20;0.20;;;8.60;99.90;11.70;101458.00;;;;5114437;27;20553;-71
2023/12/06 15:36:49;;;;;;;0.20;0.20;;;8.40;99.90;12.00;101453.00;;;;5100547;27;20548;-72
2023/12/06 15:39:38;;;;;;;1.63;1.30;;;8.50;99.90;10.60;101459.00;;;;5111423;27;20185;-71
2023/12/06 15:42:18;;;;;;;1.10;0.97;;;8.10;99.90;10.60;101459.00;;;;5118980;27;20189;-71
2023/12/06 15:45:08;;;;;;;0.20;0.20;;;7.80;99.90;10.50;101449.00;;;;5101944;27;20653;-71
2023/12/06 15:47:42;;;;;;;0.20;0.20;;;7.60;99.90;10.50;101455.00;;;;5099259;27;20569;-71
2023/12/06 15:50:22;;;;;;;0.30;0.30;;;7.60;99.90;10.60;101457.00;;;;5114951;27;20538;-71
2023/12/06 15:52:58;;;;;;;7.33;6.90;;;7.60;99.90;11.00;101461.00;;;;5117879;27;20215;-71
2023/12/06 15:55:24;;;;;;;0.30;0.30;;;7.70;99.90;10.30;101431.00;;;;5118128;27;20199;-71
2023/12/06 15:57:58;;;;;;;0.40;0.40;;;7.60;99.90;10.60;101457.00;;;;5109775;27;20182;-71
2023/12/06 16:00:29;;;;;;;0.20;0.20;;;7.50;99.90;10.40;101461.00;;;;5118181;27;20181;-72
2023/12/06 16:02:58;;;;;;;0.20;0.20;;;7.50;99.90;10.10;101453.00;;;;5133453;27;20218;-71
2023/12/06 16:05:24;;;;;;;0.20;0.20;;;7.40;99.90;11.20;101472.00;;;;5112448;27;20197;-71
2023/12/06 16:07:55;;;;;;;0.20;0.20;;;7.60;99.90;11.10;101457.00;;;;5106632;27;20673;-71
2023/12/06 16:10:21;;;;;;;0.50;0.50;;;7.70;99.90;10.60;101487.00;;;;5100739;27;20183;-71
2023/12/06 16:12:59;;;;;;;0.80;0.80;;;7.70;99.90;10.60;101479.00;;;;5100483;27;20327;-71
2023/12/06 16:15:25;;;;;;;0.20;0.20;;;7.50;99.90;11.30;101476.00;;;;5117619;27;20203;-71
2023/12/06 16:17:57;;;;;;;0.20;0.20;;;7.80;99.90;10.50;101445.00;;;;5100546;27;20554;-71
2023/12/06 16:20:34;;;;;;;0.53;0.53;;;7.50;99.90;9.80;101464.00;;;;5098392;27;20281;-71
2023/12/06 16:23:00;;;;;;;0.20;0.20;;;7.20;99.90;9.20;101455.00;;;;5126012;27;20259;-71
2023/12/06 16:25:28;;;;;;;0.30;0.30;;;7.00;99.90;9.40;101477.00;;;;5113875;28;20638;-71
2023/12/06 16:27:54;;;;;;;1.80;1.70;;;6.90;99.90;9.10;101463.00;;;;5108427;27;20195;-71
2023/12/06 16:30:20;;;;;;;0.30;0.30;;;6.80;99.90;9.00;101468.00;;;;5134120;27;20180;-71
2023/12/06 16:32:49;;;;;;;0.60;0.60;;;6.70;99.90;9.90;101478.00;;;;5109915;27;20311;-71
2023/12/06 16:35:17;;;;;;;0.20;0.20;;;6.80;99.90;9.10;101467.00;;;;5113367;27;20184;-71
2023/12/06 16:37:43;;;;;;;0.83;0.83;;;6.70;99.90;9.50;101473.00;;;;5117068;27;20186;-72
2023/12/06 16:40:14;;;;;;;0.93;0.93;;;6.70;99.90;9.30;101447.00;;;;5117144;27;20183;-71
2023/12/06 16:42:40;;;;;;;0.60;0.60;;;6.70;99.90;9.50;101478.00;;;;5100155;27;20195;-72
2023/12/06 16:45:11;;;;;;;0.20;0.20;;;6.70;99.90;9.80;101464.00;;;;5095881;28;20537;-71
2023/12/06 16:47:43;;;;;;;1.23;1.23;;;6.70;99.90;10.20;101494.00;;;;5112517;27;20175;-71
2023/12/06 16:50:14;;;;;;;0.20;0.20;;;6.90;99.90;10.30;101503.00;;;;5099378;27;20210;-71
2023/12/06 16:52:42;;;;;;;0.20;0.20;;;7.00;99.90;10.50;101505.00;;;;5099539;27;20218;-71
2023/12/06 16:55:09;;;;;;;0.20;0.20;;;7.00;99.90;10.50;101505.00;;;;5105902;28;20192;-71
2023/12/06 16:57:37;;;;;;;0.30;0.30;;;7.00;99.90;10.80;101509.00;;;;5093055;27;20183;-71
2023/12/06 17:00:05;;;;;;;0.20;0.20;;;7.10;99.90;10.50;101517.00;;;;5099472;27;20626;-71
2023/12/06 17:02:34;;;;;;;0.30;0.30;;;7.00;99.90;10.50;101518.00;;;;5116184;27;20183;-70
2023/12/06 17:05:01;;;;;;;0.30;0.30;;;6.90;99.90;10.90;101517.00;;;;5113966;27;20274;-70
2023/12/06 17:07:27;;;;;;;0.30;0.30;;;7.20;99.90;10.90;101527.00;;;;5094979;27;20191;-70
2023/12/06 17:09:53;;;;;;;0.30;0.30;;;7.30;99.90;11.10;101537.00;;;;5097698;27;20283;-70
2023/12/06 17:12:19;;;;;;;0.30;0.30;;;7.40;99.90;10.70;101521.00;;;;5116632;27;20265;-70
2023/12/06 17:14:46;;;;;;;0.30;0.30;;;7.40;99.90;10.60;101539.00;;;;5116078;27;20182;-70
2023/12/06 17:17:14;;;;;;;0.20;0.20;;;7.20;99.90;10.00;101517.00;;;;5134075;27;20199;-71
2023/12/06 17:19:44;;;;;;;0.20;0.20;;;7.00;99.90;10.30;101522.00;;;;5116123;27;20190;-70
2023/12/06 17:22:19;;;;;;;1.37;1.37;;;6.90;99.90;8.90;101509.00;;;;5116246;27;20257;-72
2023/12/06 17:24:56;;;;;;;0.20;0.20;;;6.60;99.90;9.70;101522.00;;;;5116360;27;20968;-70
2023/12/06 17:27:25;;;;;;;0.40;0.40;;;6.50;99.90;10.40;101516.00;;;;5116884;27;20271;-70
2023/12/06 17:29:53;;;;;;;0.30;0.30;;;6.80;99.90;10.50;101538.00;;;;5115923;27;20569;-70
2023/12/06 17:32:22;;;;;;;0.20;0.20;;;6.90;99.90;10.30;101537.00;;;;5096594;27;20212;-70
2023/12/06 17:34:53;;;;;;;0.20;0.20;;;6.90;99.90;10.20;101545.00;;;;5116701;27;20217;-71
2023/12/06 17:37:25;;;;;;;0.40;0.40;;;6.80;99.90;10.50;101539.00;;;;5098973;27;20269;-70
2023/12/06 17:40:02;;;;;;;0.30;0.30;;;6.80;99.90;10.20;101546.00;;;;5116020;27;20219;-70
2023/12/06 17:42:28;;;;;;;0.30;0.30;;;6.80;99.90;10.10;101542.00;;;;5112487;27;20214;-70
2023/12/06 17:45:05;;;;;;;0.70;0.70;;;6.70;99.90;10.10;101507.00;;;;5099069;27;20188;-70
2023/12/06 17:47:31;;;;;;;0.30;0.30;;;6.60;99.90;10.00;101548.00;;;;5096211;27;20183;-70
2023/12/06 17:49:58;;;;;;;0.30;0.30;;;6.60;99.90;10.10;101538.00;;;;5099078;27;20186;-70
2023/12/06 17:52:35;;;;;;;0.30;0.30;;;6.50;99.90;9.80;101534.00;;;;5115484;27;20219;-70
2023/12/06 17:55:01;;;;;;;0.30;0.30;;;6.50;99.90;9.80;101545.00;;;;5126314;27;20557;-71
2023/12/06 17:57:36;;;;;;;0.30;0.30;;;6.40;99.90;9.70;101548.00;;;;5097973;27;20657;-70
2023/12/06 18:00:06;;;;;;;0.30;0.30;;;6.30;99.90;9.70;101509.00;;;;5115558;27;20719;-71
2023/12/06 18:02:34;;;;;;;0.30;0.30;;;6.30;99.90;9.70;101544.00;;;;5115767;28;20615;-70
2023/12/06 18:05:06;;;;;;;0.30;0.30;;;6.20;99.90;9.90;101534.00;;;;5134611;27;20620;-70
2023/12/06 18:07:35;;;;;;;0.40;0.40;;;6.30;99.90;9.70;101532.00;;;;5115910;27;20182;-70
2023/12/06 18:10:11;;;;;;;0.30;0.30;;;6.30;99.90;9.80;101533.00;;;;5099233;27;20660;-70
2023/12/06 18:12:44;;;;;;;0.50;0.50;;;6.30;99.90;9.50;101542.00;;;;5098928;27;20652;-70
2023/12/06 18:15:36;;;;;;;0.30;0.30;;;6.20;99.90;10.00;101544.00;;;;5099274;28;20211;-70
2023/12/06 18:18:03;;;;;;;0.30;0.30;;;6.40;99.90;9.90;101513.00;;;;5105717;27;20182;-73
2023/12/06 18:20:32;;;;;;;0.30;0.30;;;6.40;99.90;9.80;101539.00;;;;5115981;28;20259;-72
2023/12/06 18:22:58;;;;;;;0.30;0.30;;;6.30;99.90;9.80;101543.00;;;;5115947;27;20387;-72
2023/12/06 18:25:33;;;;;;;0.30;0.30;;;6.30;99.90;9.50;101553.00;;;;5132487;27;20246;-73
2023/12/06 18:27:59;;;;;;;0.30;0.30;;;6.20;99.90;9.20;101545.00;;;;5098889;28;20244;-72
2023/12/06 18:30:27;;;;;;;0.30;0.30;;;6.00;99.90;9.20;101555.00;;;;5133984;27;20283;-73
2023/12/06 18:33:00;;;;;;;0.33;0.33;;;5.90;99.90;9.50;101553.00;;;;5115473;28;20215;-73
2023/12/06 18:35:35;;;;;;;0.33;0.33;;;6.10;99.90;9.30;101529.00;;;;5114778;28;20183;-73
2023/12/06 18:38:22;;;;;;;0.30;0.30;;;5.90;99.90;9.80;101569.00;;;;5095508;28;20191;-73
2023/12/06 18:40:48;;;;;;;0.40;0.40;;;6.10;99.90;9.60;101554.00;;;;5088747;28;20225;-70